Greensboro, NC (27455)

3:35 PM EDT on August 30, 2015 (GMT -0400)
Ridgewood | | Change Station
CLOSE
Current Station
Personal Weather Station
Location: Greensboro, NC
Elevation: 807 ft
Nearby Weather Stations

Elev 807 ft 36.20 °N, 79.81 °W | Updated 17 seconds ago

Overcast
Overcast
77.5 °F
Feels Like 79 °F
N
0.0
Wind Variable Wind from North
Gusts 0.0 mph

Today
High -- | Low -- °F
--% Chance of Precip.
Yesterday
High -- | Low -- °F
Precip. -- in
6:49 AM 7:50 PM
Full, 98% visible
Pressure 30.13 in
Visibility 10.0 miles
Clouds Few 4000 ft
Scattered Clouds 10000 ft
Mostly Cloudy 15000 ft
Overcast 20000 ft
Heat Index 79 °F
Dew Point 61 °F
Humidity 57%
Rainfall 0.00 in
Snow Depth Not available.
UV 3 out of 12
Pollen 8.30 out of 12
Air Quality Not available.
Flu Activity Not available.
METAR KGSO 301854Z 25005KT 10SM FEW040 SCT100 BKN150 OVC200 27/16 A3016 RMK AO2 SLP202 T02720161
Pressure 30.13 in
Visibility 10.0 miles
Clouds Few 4000 ft
Scattered Clouds 10000 ft
Mostly Cloudy 15000 ft
Overcast 20000 ft
Heat Index 79 °F
Dew Point 61 °F
Humidity 57%
Rainfall 0.00 in
Snow Depth Not available.
UV 3 out of 12
Pollen 8.30 out of 12
Air Quality Not available.
Flu Activity Not available.
METAR KGSO 301854Z 25005KT 10SM FEW040 SCT100 BKN150 OVC200 27/16 A3016 RMK AO2 SLP202 T02720161

10-Day Weather Forecast

×

Almanac

Astronomy

Aug. 30, 2015 Rise Set
Actual Time
Civil Twilight
Nautical Twilight
Astronomical Twilight
Moon
Length of Visible Light
Length of Day
Tomorrow will be .
, % of the Moon is Illuminated

Today's Extremes

State Highs State Lows

Community

WunderPhotos

Upload Photos

1,851,040 photos uploaded!

WunderBlogs® & News

Nearby

Air Quality

  Air Quality AQ Index Pollutant
Not available.

Snow Depth

Station Depth Elevation

Earthquake Activity

City Distance Mag. Time & Date
Minimum magnitude displayed is 2.5.

Coastal Water Temperatures

Place Temperature

Stations

Nearby Weather Stations

Station Location Temp. Windchill Dew Point Humidity Wind Precip. Elev Updated Type